Terminal Aerodrome Forecast
Issued by NWS Atlanta, GA

Home | Current Version | Previous Version | Text Only | Print | Product List | Glossary On
Versions: 1 2 3 4 5 6 7 8 9 10 11 12 13 14 15 16 17 18 19 20 21 22 23 24 25 26 27 28 29 30 31 32 33 34 35 36 37
000
FTUS42 KFFC 310740 AAA
TAFATL
TAF AMD
KATL 310740Z 3108/0112 32007KT P6SM FEW250
     FM311100 01007KT P6SM FEW250
     FM311500 04008KT P6SM FEW030
     FM312100 01007KT P6SM SCT050
     FM010000 34006KT P6SM SCT080
     FM011000 01005KT P6SM FEW250=

USA.gov is the U.S. government's official web portal to all federal, state and local government web resources and services.